Time;durP1;ratioP1;P1;durP2;ratioP2;P2;SDS_P1;SDS_P2;PMS_P1;PMS_P2;Temp;Humidity;BMP_temperature;BMP_pressure;BME280_temperature;BME280_humidity;BME280_pressure;Samples;Min_cycle;Max_cycle;Signal;HPM_P1;HPM_P2
2022/06/24 00:01:54;;;;;;;1.97;1.80;;;;;;;23.09;38.40;100642.16;4965190;28;97557;-87
2022/06/24 00:04:28;;;;;;;2.13;1.93;;;;;;;23.07;38.05;100649.69;4952878;28;97264;-87
2022/06/24 00:06:56;;;;;;;1.83;1.73;;;;;;;23.04;37.80;100662.78;4931874;28;97045;-89
2022/06/24 00:09:25;;;;;;;1.67;1.57;;;;;;;23.04;37.85;100645.97;4946487;28;98427;-88
2022/06/24 00:12:06;;;;;;;1.70;1.60;;;;;;;23.01;38.37;100652.75;4934390;28;97384;-88
2022/06/24 00:14:32;;;;;;;1.87;1.77;;;;;;;22.98;37.92;100642.66;4942360;28;96743;-87
2022/06/24 00:17:18;;;;;;;1.70;1.60;;;;;;;22.95;38.60;100646.66;4969823;28;96824;-88
2022/06/24 00:19:59;;;;;;;1.90;1.77;;;;;;;22.94;38.63;100647.22;4958465;28;97306;-87
2022/06/24 00:22:27;;;;;;;1.97;1.87;;;;;;;22.91;38.05;100637.16;4934627;28;101550;-90
2022/06/24 00:25:07;;;;;;;1.90;1.63;;;;;;;22.86;38.63;100640.97;4947906;28;97237;-88
2022/06/24 00:27:33;;;;;;;4.10;2.07;;;;;;;22.80;38.00;100646.81;4943524;28;97022;-88
2022/06/24 00:30:10;;;;;;;2.20;1.77;;;;;;;22.85;38.62;100636.66;4945844;28;100239;-87
2022/06/24 00:32:36;;;;;;;1.67;1.57;;;;;;;22.81;38.31;100633.53;4946556;28;101672;-89
2022/06/24 00:35:09;;;;;;;2.00;1.90;;;;;;;22.80;38.64;100632.06;4934444;28;98333;-88
2022/06/24 00:37:36;;;;;;;2.40;1.77;;;;;;;22.80;38.37;100618.75;4947110;28;97972;-86
2022/06/24 00:40:21;;;;;;;1.60;1.50;;;;;;;22.79;38.23;100631.31;4939049;28;97464;-87
2022/06/24 00:42:47;;;;;;;2.13;1.90;;;;;;;22.78;38.38;100641.03;4940249;28;104267;-89
2022/06/24 00:45:28;;;;;;;1.50;1.40;;;;;;;22.79;38.70;100628.50;4946698;28;96892;-89
2022/06/24 00:47:56;;;;;;;2.47;1.93;;;;;;;22.79;38.45;100622.16;4948605;28;97738;-87
2022/06/24 00:50:24;;;;;;;1.70;1.60;;;;;;;22.81;38.42;100613.88;4951392;28;96786;-88
2022/06/24 00:52:59;;;;;;;1.53;1.43;;;;;;;22.80;38.64;100635.59;4937262;28;100128;-87
2022/06/24 00:55:34;;;;;;;1.77;1.67;;;;;;;22.81;39.02;100606.22;4939877;28;96838;-87
2022/06/24 00:58:01;;;;;;;2.00;1.80;;;;;;;22.79;38.48;100603.25;4941266;28;97007;-87
2022/06/24 01:00:30;;;;;;;1.80;1.70;;;;;;;22.82;38.57;100612.59;4942187;28;97946;-86
2022/06/24 01:02:57;;;;;;;1.53;1.43;;;;;;;22.80;38.44;100598.41;4946428;28;100519;-88
2022/06/24 01:05:24;;;;;;;1.70;1.60;;;;;;;22.85;38.52;100595.31;4948737;28;97063;-88
2022/06/24 01:07:49;;;;;;;1.70;1.60;;;;;;;22.85;38.48;100600.19;4945124;28;97469;-87
2022/06/24 01:10:15;;;;;;;1.97;1.80;;;;;;;22.91;38.19;100597.88;4942989;28;99792;-89
2022/06/24 01:12:40;;;;;;;2.27;1.97;;;;;;;22.90;38.39;100591.53;4951696;28;96882;-87
2022/06/24 01:15:06;;;;;;;1.97;1.63;;;;;;;22.91;38.33;100595.81;4944152;28;97862;-90
2022/06/24 01:17:32;;;;;;;2.40;1.40;;;;;;;22.94;38.29;100597.47;4935331;28;96847;-87
2022/06/24 01:19:58;;;;;;;2.00;1.90;;;;;;;22.94;38.33;100575.00;4950556;28;96867;-87
2022/06/24 01:22:25;;;;;;;1.77;1.67;;;;;;;22.95;38.39;100582.13;4945182;28;96995;-86
2022/06/24 01:24:51;;;;;;;4.60;1.70;;;;;;;22.99;38.26;100567.66;4946178;28;96908;-89
2022/06/24 01:27:17;;;;;;;1.70;1.60;;;;;;;23.00;38.50;100591.56;4940868;28;98375;-87
2022/06/24 01:29:43;;;;;;;2.20;2.00;;;;;;;22.99;38.39;100559.22;4940139;28;97021;-87
2022/06/24 01:32:08;;;;;;;1.53;1.43;;;;;;;22.97;38.44;100562.63;4940592;28;97086;-87
2022/06/24 01:34:34;;;;;;;1.90;1.70;;;;;;;22.93;38.29;100579.13;4936843;28;97220;-89
2022/06/24 01:36:59;;;;;;;1.60;1.50;;;;;;;22.99;38.40;100559.22;4953875;28;96782;-87
2022/06/24 01:39:25;;;;;;;1.70;1.60;;;;;;;22.96;38.42;100558.34;4943879;28;97075;-88
2022/06/24 01:41:51;;;;;;;1.60;1.50;;;;;;;23.05;38.54;100570.94;4930820;28;96933;-88
2022/06/24 01:44:17;;;;;;;1.40;1.30;;;;;;;23.08;38.39;100547.34;4953778;28;97293;-87
2022/06/24 01:46:43;;;;;;;2.50;1.70;;;;;;;23.05;38.31;100554.09;4943116;28;97104;-86
2022/06/24 01:49:09;;;;;;;1.73;1.63;;;;;;;23.06;38.40;100542.28;4945186;28;98527;-87
2022/06/24 01:51:37;;;;;;;2.63;1.50;;;;;;;23.06;38.33;100536.66;4943705;28;96614;-86
2022/06/24 01:54:04;;;;;;;2.40;2.20;;;;;;;23.08;38.38;100536.09;4939732;28;97369;-88
2022/06/24 01:56:30;;;;;;;1.53;1.43;;;;;;;23.08;38.31;100528.44;4937207;28;96721;-88
2022/06/24 01:58:55;;;;;;;2.27;1.57;;;;;;;23.11;38.51;100565.78;4937747;28;97132;-87
2022/06/24 02:01:21;;;;;;;1.50;1.40;;;;;;;23.14;38.46;100533.75;4938888;28;97198;-86
2022/06/24 02:03:46;;;;;;;1.60;1.50;;;;;;;23.15;38.37;100535.25;4939723;28;96844;-89
2022/06/24 02:06:13;;;;;;;1.80;1.60;;;;;;;23.20;38.38;100511.06;4930909;28;97370;-87
2022/06/24 02:08:39;;;;;;;1.80;1.70;;;;;;;23.16;38.56;100516.31;4928193;28;98735;-90
2022/06/24 02:13:50;;;;;;;1.40;1.40;;;;;;;23.20;38.61;100519.47;4936022;28;97049;-85
2022/06/24 02:16:18;;;;;;;1.47;1.33;;;;;;;23.20;38.43;100508.25;4947834;28;96977;-86
2022/06/24 02:18:45;;;;;;;1.90;1.80;;;;;;;23.13;38.45;100499.34;4935331;28;97055;-87
2022/06/24 02:21:11;;;;;;;1.30;1.20;;;;;;;23.21;38.39;100504.84;4948384;28;98866;-87
2022/06/24 02:23:37;;;;;;;2.00;1.90;;;;;;;23.22;38.53;100511.22;4943523;28;97012;-89
2022/06/24 02:26:02;;;;;;;1.80;1.70;;;;;;;23.21;38.65;100512.53;4943968;28;97283;-86
2022/06/24 02:28:28;;;;;;;1.83;1.73;;;;;;;23.25;38.51;100507.22;4942090;28;97482;-88
2022/06/24 02:30:55;;;;;;;1.33;1.20;;;;;;;23.26;38.69;100520.69;4931595;28;98201;-87
2022/06/24 02:33:21;;;;;;;1.73;1.60;;;;;;;23.25;38.41;100502.34;4946693;28;96997;-86
2022/06/24 02:35:47;;;;;;;2.27;1.27;;;;;;;23.24;38.55;100500.13;4932792;28;97094;-88
2022/06/24 02:38:13;;;;;;;2.00;1.90;;;;;;;23.20;38.67;100505.44;4936334;28;97595;-88
2022/06/24 02:40:48;;;;;;;1.80;1.50;;;;;;;23.19;38.73;100501.13;4939665;28;97392;-89
2022/06/24 02:43:19;;;;;;;1.33;1.23;;;;;;;23.19;38.86;100485.03;4943066;28;96814;-87
2022/06/24 02:45:49;;;;;;;1.67;1.57;;;;;;;23.16;38.82;100489.00;4951010;28;97007;-89
2022/06/24 02:48:17;;;;;;;1.57;1.47;;;;;;;23.11;38.98;100476.72;4939115;28;97318;-86
2022/06/24 02:50:45;;;;;;;1.77;1.60;;;;;;;23.09;39.05;100478.63;4948529;28;98495;-86
2022/06/24 02:53:12;;;;;;;1.83;1.73;;;;;;;23.05;38.99;100476.25;4939037;28;97078;-88
2022/06/24 02:55:38;;;;;;;1.03;1.03;;;;;;;23.02;39.16;100479.50;4950131;28;96754;-87
2022/06/24 02:58:05;;;;;;;1.67;1.57;;;;;;;23.03;39.18;100475.38;4950717;28;98148;-87
2022/06/24 03:00:31;;;;;;;1.63;1.53;;;;;;;23.05;38.98;100469.91;4946297;28;99615;-87
2022/06/24 03:02:57;;;;;;;1.47;1.37;;;;;;;23.03;38.84;100476.09;4948645;28;97107;-87
2022/06/24 03:05:23;;;;;;;1.83;1.73;;;;;;;23.02;39.07;100480.22;4948927;28;97118;-88
2022/06/24 03:07:49;;;;;;;1.73;1.63;;;;;;;23.02;39.26;100473.91;4945909;28;97167;-88
2022/06/24 03:10:15;;;;;;;1.77;1.67;;;;;;;23.04;39.24;100460.03;4939263;28;97010;-88
2022/06/24 03:12:40;;;;;;;2.00;1.90;;;;;;;23.05;39.27;100462.22;4952125;28;98754;-87
2022/06/24 03:15:07;;;;;;;5.40;1.63;;;;;;;23.07;39.55;100459.56;4942555;28;96800;-86
2022/06/24 03:17:32;;;;;;;1.57;1.47;;;;;;;23.05;39.45;100469.91;4937563;28;96855;-86
2022/06/24 03:19:57;;;;;;;2.70;1.77;;;;;;;23.05;39.20;100456.63;4949779;28;97416;-87
2022/06/24 03:22:23;;;;;;;1.60;1.50;;;;;;;23.05;39.40;100464.28;4933121;28;97481;-87
2022/06/24 03:24:48;;;;;;;2.07;1.70;;;;;;;23.04;39.30;100448.78;4948842;28;97397;-88
2022/06/24 03:27:14;;;;;;;1.73;1.63;;;;;;;23.03;39.39;100458.53;4951474;28;97491;-86
2022/06/24 03:29:39;;;;;;;2.33;1.60;;;;;;;23.01;39.50;100455.56;4948549;28;96763;-86
2022/06/24 03:32:05;;;;;;;1.60;1.50;;;;;;;23.03;39.61;100441.69;4933942;28;97287;-86
2022/06/24 03:34:31;;;;;;;1.93;1.63;;;;;;;23.02;39.39;100462.66;4949149;28;97739;-86
2022/06/24 03:36:56;;;;;;;1.83;1.73;;;;;;;23.05;39.84;100444.66;4941641;28;99528;-86
2022/06/24 03:39:21;;;;;;;1.63;1.40;;;;;;;23.05;39.85;100472.72;4946932;28;99591;-86
2022/06/24 03:41:47;;;;;;;4.80;1.73;;;;;;;23.09;39.68;100451.31;4937724;28;97424;-86
2022/06/24 03:44:12;;;;;;;1.53;1.43;;;;;;;23.09;39.79;100437.28;4953704;28;97082;-87
2022/06/24 03:46:38;;;;;;;1.60;1.50;;;;;;;23.10;39.80;100452.06;4939089;28;98739;-87
2022/06/24 03:49:03;;;;;;;1.60;1.50;;;;;;;23.05;39.70;100439.03;4942901;28;98774;-87
2022/06/24 03:51:29;;;;;;;1.90;1.80;;;;;;;23.09;39.67;100433.72;4942043;28;97496;-89
2022/06/24 03:53:55;;;;;;;1.77;1.67;;;;;;;23.11;39.75;100442.31;4944446;28;97049;-86
2022/06/24 03:56:20;;;;;;;1.80;1.70;;;;;;;23.11;39.84;100431.06;4934478;28;98149;-86
2022/06/24 03:58:46;;;;;;;2.00;1.63;;;;;;;23.14;39.73;100441.13;4947601;28;98246;-86
2022/06/24 04:01:16;;;;;;;1.60;1.50;;;;;;;23.18;40.11;100435.84;4939315;28;96822;-86
2022/06/24 04:03:52;;;;;;;1.70;1.60;;;;;;;23.19;40.15;100433.78;4927321;28;97162;-88
2022/06/24 04:06:18;;;;;;;1.90;1.80;;;;;;;23.19;40.00;100447.81;4941799;28;101317;-86
2022/06/24 04:08:43;;;;;;;1.43;1.33;;;;;;;23.22;40.08;100435.41;4940583;28;98728;-85
2022/06/24 04:11:13;;;;;;;1.40;1.37;;;;;;;23.21;40.04;100434.66;4949574;28;97181;-86
2022/06/24 04:13:39;;;;;;;2.03;1.60;;;;;;;23.23;39.90;100423.59;4945797;28;97109;-85
2022/06/24 04:16:05;;;;;;;1.70;1.60;;;;;;;23.24;40.26;100427.88;4944393;28;101443;-86
2022/06/24 04:18:31;;;;;;;1.57;1.47;;;;;;;23.27;40.23;100420.34;4945211;28;96926;-87
2022/06/24 04:20:56;;;;;;;1.80;1.70;;;;;;;23.29;40.20;100424.03;4943987;28;96996;-86
2022/06/24 04:23:22;;;;;;;2.00;1.90;;;;;;;23.30;40.09;100422.72;4944810;28;97077;-87
2022/06/24 04:25:48;;;;;;;1.80;1.70;;;;;;;23.24;40.41;100433.47;4945565;28;97101;-87
2022/06/24 04:28:13;;;;;;;1.60;1.50;;;;;;;23.32;40.30;100422.88;4946559;28;96611;-86
2022/06/24 04:30:39;;;;;;;1.90;1.80;;;;;;;23.35;40.20;100423.81;4938635;28;96925;-86
2022/06/24 04:33:04;;;;;;;3.07;1.83;;;;;;;23.39;40.42;100410.81;4947243;28;96740;-88
2022/06/24 04:35:30;;;;;;;2.30;1.70;;;;;;;23.40;40.33;100411.53;4943898;28;96813;-87
2022/06/24 04:37:55;;;;;;;1.60;1.50;;;;;;;23.42;40.54;100429.28;4942487;28;99203;-88
2022/06/24 04:40:21;;;;;;;1.93;1.83;;;;;;;23.43;40.27;100416.72;4946825;28;97283;-85
2022/06/24 04:42:47;;;;;;;1.60;1.50;;;;;;;23.46;40.29;100395.88;4939140;28;97151;-86
2022/06/24 04:45:12;;;;;;;1.90;1.80;;;;;;;23.50;40.49;100415.13;4940498;28;100550;-85
2022/06/24 04:47:38;;;;;;;1.90;1.73;;;;;;;23.53;40.72;100411.13;4959608;28;99545;-87
2022/06/24 04:50:05;;;;;;;1.47;1.40;;;;;;;23.55;40.47;100420.44;4944306;28;96925;-87
2022/06/24 04:52:32;;;;;;;1.67;1.57;;;;;;;23.58;40.50;100410.84;4923162;28;97365;-87
2022/06/24 04:55:00;;;;;;;2.50;1.70;;;;;;;23.61;40.55;100434.94;4934991;28;96837;-86
2022/06/24 04:57:27;;;;;;;2.00;1.83;;;;;;;23.65;40.43;100424.00;4937085;28;97370;-88
2022/06/24 04:59:54;;;;;;;1.87;1.77;;;;;;;23.67;40.49;100424.16;4940532;28;97346;-89
2022/06/24 05:02:22;;;;;;;1.97;1.87;;;;;;;23.71;40.39;100430.06;4941680;28;96844;-88
2022/06/24 05:04:49;;;;;;;1.57;1.47;;;;;;;23.74;40.52;100428.88;4931244;28;97356;-88
2022/06/24 05:07:14;;;;;;;2.63;1.57;;;;;;;23.82;40.39;100428.75;4950373;28;97019;-88
2022/06/24 05:09:40;;;;;;;2.03;1.93;;;;;;;23.83;40.27;100436.56;4930982;28;97679;-89
2022/06/24 05:12:05;;;;;;;1.83;1.73;;;;;;;23.90;40.11;100437.03;4943629;28;96992;-87
2022/06/24 05:14:31;;;;;;;2.00;1.90;;;;;;;23.93;40.27;100441.47;4937939;28;99663;-89
2022/06/24 05:16:57;;;;;;;2.80;1.93;;;;;;;23.99;40.27;100464.38;4946079;28;99616;-88
2022/06/24 05:19:23;;;;;;;6.50;1.90;;;;;;;24.05;40.12;100450.84;4924155;28;97187;-87
2022/06/24 05:21:49;;;;;;;1.83;1.73;;;;;;;24.09;40.09;100456.75;4943503;28;97472;-87
2022/06/24 05:24:14;;;;;;;1.77;1.67;;;;;;;24.16;40.01;100448.16;4945928;28;97535;-88
2022/06/24 05:26:44;;;;;;;1.93;1.80;;;;;;;24.21;40.31;100452.00;4940360;28;97708;-87
2022/06/24 05:29:10;;;;;;;2.63;2.43;;;;;;;24.25;40.23;100457.91;4944980;28;97008;-88
2022/06/24 05:31:36;;;;;;;1.60;1.50;;;;;;;24.32;40.05;100446.50;4943530;28;97392;-87
2022/06/24 05:34:02;;;;;;;1.60;1.53;;;;;;;24.37;39.84;100441.91;4934631;28;97597;-86
2022/06/24 05:36:27;;;;;;;3.70;1.73;;;;;;;24.41;39.87;100442.22;4939142;28;99639;-88
2022/06/24 05:38:53;;;;;;;1.93;1.83;;;;;;;24.43;40.08;100457.16;4929204;28;97201;-87
2022/06/24 05:41:18;;;;;;;1.90;1.80;;;;;;;24.50;40.30;100449.88;4935184;28;96884;-88
2022/06/24 05:43:45;;;;;;;1.70;1.60;;;;;;;24.57;39.88;100463.06;4947462;28;98961;-89
2022/06/24 05:46:11;;;;;;;1.87;1.77;;;;;;;24.65;40.06;100446.00;4952096;28;100780;-88
2022/06/24 05:48:37;;;;;;;2.07;1.97;;;;;;;24.72;39.77;100447.91;4962188;28;97191;-88
2022/06/24 05:51:09;;;;;;;1.80;1.70;;;;;;;24.81;39.74;100453.56;4945804;28;97545;-88
2022/06/24 05:56:19;;;;;;;1.63;1.53;;;;;;;24.95;39.72;100448.91;4941201;28;100077;-87
2022/06/24 05:58:45;;;;;;;1.73;1.63;;;;;;;25.03;39.50;100452.25;4944534;28;96906;-86
2022/06/24 06:01:11;;;;;;;3.03;1.80;;;;;;;25.10;39.34;100450.59;4949497;28;96624;-86
2022/06/24 06:03:36;;;;;;;1.77;1.70;;;;;;;25.17;39.22;100441.97;4927470;28;97573;-87
2022/06/24 06:06:03;;;;;;;1.87;1.77;;;;;;;25.27;38.91;100441.94;4949020;28;96893;-89
2022/06/24 06:08:29;;;;;;;4.13;1.77;;;;;;;25.33;38.74;100450.06;4943212;28;97377;-87
2022/06/24 06:10:54;;;;;;;1.50;1.40;;;;;;;25.43;38.74;100445.88;4944996;28;97054;-87
2022/06/24 06:13:19;;;;;;;2.03;1.77;;;;;;;25.49;38.62;100437.81;4944641;28;98824;-86
2022/06/24 06:15:45;;;;;;;1.93;1.83;;;;;;;25.58;38.75;100433.47;4922303;28;96845;-85
2022/06/24 06:18:11;;;;;;;1.80;1.70;;;;;;;25.67;38.78;100436.22;4936147;28;97628;-87
2022/06/24 06:20:37;;;;;;;2.40;2.10;;;;;;;25.77;38.94;100444.63;4946481;28;97208;-87
2022/06/24 06:23:04;;;;;;;1.80;1.70;;;;;;;25.83;38.71;100447.84;4939040;28;97328;-87
2022/06/24 06:25:30;;;;;;;2.10;2.00;;;;;;;25.88;38.48;100460.88;4949871;28;99677;-86
2022/06/24 06:27:55;;;;;;;1.93;1.83;;;;;;;25.94;38.66;100436.63;4916897;28;97059;-87
2022/06/24 06:30:21;;;;;;;2.20;2.10;;;;;;;26.03;38.26;100443.53;4929969;28;96847;-88
2022/06/24 06:32:46;;;;;;;2.10;2.00;;;;;;;26.09;38.10;100441.13;4933456;28;100141;-86
2022/06/24 06:35:12;;;;;;;2.20;2.00;;;;;;;26.17;38.16;100433.19;4921745;28;96981;-84
2022/06/24 06:37:38;;;;;;;2.00;1.83;;;;;;;26.23;37.91;100427.94;4929525;28;97003;-86
2022/06/24 06:40:04;;;;;;;2.00;1.90;;;;;;;26.28;37.87;100432.47;4921102;28;97119;-87
2022/06/24 06:42:29;;;;;;;2.13;1.97;;;;;;;26.37;37.96;100425.25;4929331;28;99866;-90
2022/06/24 06:44:55;;;;;;;3.10;2.10;;;;;;;26.45;37.87;100420.88;4939511;28;96858;-89
2022/06/24 06:47:20;;;;;;;1.77;1.67;;;;;;;26.54;37.72;100431.31;4931106;28;96919;-89
2022/06/24 06:49:46;;;;;;;2.80;2.43;;;;;;;26.61;37.71;100435.25;4930218;28;97016;-87
2022/06/24 06:52:11;;;;;;;2.90;1.80;;;;;;;26.69;37.64;100428.03;4908582;28;99539;-88
2022/06/24 06:54:37;;;;;;;2.20;2.10;;;;;;;26.76;37.41;100426.34;4923803;28;98093;-87
2022/06/24 06:57:05;;;;;;;2.30;2.10;;;;;;;26.85;37.47;100425.50;4920037;28;97021;-89
2022/06/24 06:59:31;;;;;;;1.70;1.60;;;;;;;26.93;37.08;100422.44;4929169;28;96770;-89
2022/06/24 07:01:57;;;;;;;1.70;1.60;;;;;;;27.03;37.12;100420.97;4933767;28;98200;-89
2022/06/24 07:04:22;;;;;;;1.80;1.70;;;;;;;27.12;36.78;100433.50;4948145;28;97542;-91
2022/06/24 07:06:49;;;;;;;1.77;1.63;;;;;;;27.22;36.86;100428.44;4948232;28;97329;-89
2022/06/24 07:09:15;;;;;;;1.73;1.63;;;;;;;27.31;36.87;100414.19;4952948;28;97257;-89
2022/06/24 07:11:40;;;;;;;2.00;1.90;;;;;;;27.39;36.88;100399.84;4944123;28;96787;-87
2022/06/24 07:14:06;;;;;;;3.20;1.87;;;;;;;27.48;36.83;100418.03;4946537;28;97038;-87
2022/06/24 07:16:31;;;;;;;2.03;1.93;;;;;;;27.53;36.66;100406.31;4943154;28;97527;-87
2022/06/24 07:18:57;;;;;;;1.80;1.60;;;;;;;27.64;36.55;100410.47;4964769;28;97080;-88
2022/06/24 07:21:22;;;;;;;2.10;2.00;;;;;;;27.72;36.50;100402.47;4950071;28;100219;-89
2022/06/24 07:23:48;;;;;;;2.80;2.10;;;;;;;27.81;36.38;100405.13;4947200;28;98308;-88
2022/06/24 07:26:13;;;;;;;1.93;1.83;;;;;;;27.91;36.02;100396.50;4953441;28;96748;-87
2022/06/24 07:28:39;;;;;;;1.90;1.80;;;;;;;27.97;36.11;100399.66;4945881;28;96755;-89
2022/06/24 07:31:19;;;;;;;2.53;1.83;;;;;;;28.02;35.93;100390.78;4957099;28;100121;-89
2022/06/24 07:33:45;;;;;;;1.73;1.40;;;;;;;28.12;36.21;100393.47;4947109;28;101896;-89
2022/06/24 07:36:10;;;;;;;1.53;1.40;;;;;;;28.15;36.23;100380.91;4950351;28;96756;-87
2022/06/24 07:38:36;;;;;;;2.10;1.70;;;;;;;28.23;36.39;100370.03;4946867;28;97337;-91
2022/06/24 07:41:02;;;;;;;2.20;1.70;;;;;;;28.34;36.19;100383.38;4945204;28;97965;-83
2022/06/24 07:43:28;;;;;;;2.03;1.90;;;;;;;28.41;36.02;100395.75;4939214;28;98380;-87
2022/06/24 07:45:54;;;;;;;1.30;1.30;;;;;;;28.47;36.04;100394.00;4945449;28;97133;-86
2022/06/24 07:48:20;;;;;;;1.70;1.60;;;;;;;28.59;35.69;100386.19;4945711;28;96845;-89
2022/06/24 07:50:45;;;;;;;2.03;1.80;;;;;;;28.65;35.60;100378.03;4948868;28;98619;-85
2022/06/24 07:53:11;;;;;;;2.97;1.30;;;;;;;28.72;35.74;100367.75;4947803;28;97629;-84
2022/06/24 07:58:21;;;;;;;1.97;1.40;;;;;;;28.85;35.69;100367.75;4927714;28;97300;-87
2022/06/24 08:00:48;;;;;;;2.00;1.90;;;;;;;28.93;35.38;100370.28;4951046;28;99221;-85
2022/06/24 08:03:14;;;;;;;3.67;2.17;;;;;;;29.00;35.57;100380.56;4942803;28;99789;-87
2022/06/24 08:05:40;;;;;;;1.33;1.23;;;;;;;29.06;35.30;100360.31;4945398;28;97253;-88
2022/06/24 08:08:05;;;;;;;1.50;1.40;;;;;;;29.16;35.46;100369.34;4945635;28;97049;-86
2022/06/24 08:10:31;;;;;;;3.53;1.80;;;;;;;29.24;35.65;100366.94;4934263;28;98322;-87
2022/06/24 08:12:56;;;;;;;2.20;1.50;;;;;;;29.31;35.44;100380.06;4944948;28;98542;-86
2022/06/24 08:15:22;;;;;;;1.67;1.57;;;;;;;29.40;35.38;100368.47;4936714;28;97084;-89
2022/06/24 08:17:48;;;;;;;1.60;1.50;;;;;;;29.47;35.17;100364.59;4943475;28;97018;-89
2022/06/24 08:20:14;;;;;;;1.93;1.53;;;;;;;29.50;35.26;100352.00;4943791;28;96960;-87
2022/06/24 08:22:40;;;;;;;1.57;1.23;;;;;;;29.58;35.23;100345.97;4929186;28;97609;-89
2022/06/24 08:25:06;;;;;;;1.50;1.40;;;;;;;29.65;35.04;100345.66;4946241;28;96864;-86
2022/06/24 08:27:32;;;;;;;1.83;1.40;;;;;;;29.75;34.94;100347.53;4945364;28;96880;-88
2022/06/24 08:29:57;;;;;;;1.60;1.50;;;;;;;29.80;34.66;100337.84;4938753;28;97055;-88
2022/06/24 08:32:23;;;;;;;1.43;1.33;;;;;;;29.87;34.66;100342.44;4943700;28;97242;-88
2022/06/24 08:34:48;;;;;;;2.00;1.63;;;;;;;29.97;35.11;100340.81;4944869;28;96663;-85
2022/06/24 08:37:14;;;;;;;1.93;1.83;;;;;;;30.07;34.59;100344.13;4949547;28;97159;-88
2022/06/24 08:39:39;;;;;;;1.80;1.70;;;;;;;30.17;34.81;100341.03;4943380;28;96942;-85
2022/06/24 08:42:08;;;;;;;2.40;1.50;;;;;;;30.22;34.73;100349.09;4938494;28;99244;-90
2022/06/24 08:44:35;;;;;;;2.93;1.73;;;;;;;30.34;34.81;100338.31;4941546;28;97208;-89
2022/06/24 08:47:00;;;;;;;2.20;1.97;;;;;;;30.41;34.73;100341.44;4947149;28;96771;-90
2022/06/24 08:49:26;;;;;;;1.30;1.23;;;;;;;30.47;34.76;100331.09;4939573;28;97780;-86
2022/06/24 08:51:54;;;;;;;1.57;1.43;;;;;;;30.56;34.50;100332.22;4942713;28;98191;-87
2022/06/24 08:54:27;;;;;;;1.50;1.40;;;;;;;30.64;34.57;100347.50;4942529;28;96859;-90
2022/06/24 08:56:53;;;;;;;3.40;1.70;;;;;;;30.75;34.80;100334.47;4933784;28;97241;-87
2022/06/24 08:59:18;;;;;;;2.00;1.50;;;;;;;30.84;34.66;100325.66;4937655;28;97124;-90
2022/06/24 09:01:45;;;;;;;1.70;1.60;;;;;;;30.88;34.34;100320.19;4941701;28;97997;-86
2022/06/24 09:04:10;;;;;;;1.50;1.40;;;;;;;30.96;34.29;100308.44;4934449;28;96934;-87
2022/06/24 09:06:41;;;;;;;2.03;1.30;;;;;;;31.09;34.21;100319.69;4940743;28;96956;-86
2022/06/24 09:09:07;;;;;;;3.00;1.40;;;;;;;31.19;34.20;100308.00;4941865;28;102902;-88
2022/06/24 09:11:37;;;;;;;1.70;1.60;;;;;;;31.27;33.94;100307.59;4946934;28;97048;-88
2022/06/24 09:14:02;;;;;;;2.30;1.40;;;;;;;31.35;33.87;100302.25;4943737;28;97281;-89
2022/06/24 09:16:28;;;;;;;2.40;1.63;;;;;;;31.46;33.78;100307.00;4945597;28;97252;-87
2022/06/24 09:18:56;;;;;;;1.83;1.33;;;;;;;31.59;33.97;100306.09;4940652;28;96879;-88
2022/06/24 09:21:30;;;;;;;1.60;1.50;;;;;;;31.80;33.66;100302.69;4942631;28;96705;-89
2022/06/24 09:23:58;;;;;;;1.40;1.30;;;;;;;31.98;33.66;100309.09;4940516;28;98046;-86
2022/06/24 09:26:30;;;;;;;1.50;1.40;;;;;;;32.01;32.91;100302.13;4943965;28;96690;-88
2022/06/24 09:28:56;;;;;;;1.83;1.60;;;;;;;31.86;33.12;100316.41;4938538;28;102958;-87
2022/06/24 09:31:25;;;;;;;2.43;1.90;;;;;;;31.77;33.10;100301.16;4944737;28;97346;-88
2022/06/24 09:33:53;;;;;;;3.80;1.90;;;;;;;31.67;32.93;100309.28;4946586;28;96987;-87
2022/06/24 09:36:25;;;;;;;6.50;2.10;;;;;;;31.73;32.99;100293.19;4947497;28;97370;-87
2022/06/24 09:38:54;;;;;;;1.60;1.50;;;;;;;31.81;32.87;100304.16;4945757;28;97735;-87
2022/06/24 09:41:19;;;;;;;3.30;1.73;;;;;;;31.78;33.00;100300.47;4943807;28;97462;-86
2022/06/24 09:43:45;;;;;;;1.60;1.50;;;;;;;31.76;33.13;100296.81;4941592;28;96807;-88
2022/06/24 09:46:22;;;;;;;1.50;1.40;;;;;;;31.72;33.40;100303.09;4941293;28;97236;-87
2022/06/24 09:48:51;;;;;;;2.13;1.90;;;;;;;31.69;33.53;100295.84;4944176;28;101086;-87
2022/06/24 09:51:17;;;;;;;1.43;1.33;;;;;;;31.63;33.32;100301.31;4942150;28;97700;-88
2022/06/24 09:53:43;;;;;;;1.97;1.60;;;;;;;31.52;33.56;100304.41;4940995;28;96843;-86
2022/06/24 09:56:10;;;;;;;2.60;1.27;;;;;;;31.43;33.54;100317.53;4926843;28;97291;-87
2022/06/24 09:58:38;;;;;;;2.50;1.60;;;;;;;31.37;33.82;100310.84;4941315;28;97719;-87
2022/06/24 10:01:05;;;;;;;1.37;1.27;;;;;;;31.27;33.86;100308.34;4944756;28;97059;-90
2022/06/24 10:03:32;;;;;;;2.40;1.60;;;;;;;31.18;34.08;100329.28;4944020;28;96697;-85
2022/06/24 10:06:09;;;;;;;1.70;1.43;;;;;;;31.15;34.18;100321.31;4940558;28;96751;-87
2022/06/24 10:08:35;;;;;;;1.60;1.30;;;;;;;31.06;33.93;100329.47;4942448;28;102724;-86
2022/06/24 10:11:08;;;;;;;1.20;1.10;;;;;;;30.97;34.15;100321.97;4931513;28;98102;-87
2022/06/24 10:13:34;;;;;;;2.00;1.83;;;;;;;30.90;34.16;100336.59;4945624;28;96849;-87
2022/06/24 10:16:02;;;;;;;2.50;1.70;;;;;;;30.81;34.64;100344.00;4943476;28;96816;-90
2022/06/24 10:18:40;;;;;;;2.57;1.33;;;;;;;30.64;36.18;100364.53;4946401;28;97017;-88
2022/06/24 10:21:09;;;;;;;1.20;1.20;;;;;;;30.43;37.12;100375.63;4944909;28;98685;-89
2022/06/24 10:23:47;;;;;;;1.67;1.57;;;;;;;30.15;39.36;100377.81;4907845;28;97093;-87
2022/06/24 10:26:30;;;;;;;1.73;1.63;;;;;;;29.78;40.48;100392.38;4927950;28;96667;-89
2022/06/24 10:29:05;;;;;;;1.87;1.77;;;;;;;29.42;41.20;100396.94;4916279;28;103903;-91
2022/06/24 10:34:10;;;;;;;1.57;1.47;;;;;;;28.89;42.16;100404.06;4930879;28;97057;-90
2022/06/24 10:36:36;;;;;;;2.40;2.13;;;;;;;28.68;43.25;100402.25;4922211;28;97186;-89
2022/06/24 10:39:14;;;;;;;3.00;1.77;;;;;;;28.54;44.91;100400.72;4929267;28;97055;-90
2022/06/24 10:41:44;;;;;;;2.67;1.67;;;;;;;28.38;43.99;100397.00;4940772;28;100560;-90
2022/06/24 10:44:26;;;;;;;2.20;2.00;;;;;;;28.23;46.11;100394.75;4967425;28;96957;-88
2022/06/24 10:47:04;;;;;;;2.80;2.50;;;;;;;28.09;46.17;100401.09;4939390;28;97036;-89
2022/06/24 10:49:54;;;;;;;2.47;2.30;;;;;;;27.98;47.10;100396.22;4935641;28;97480;-88
2022/06/24 10:52:51;;;;;;;2.43;2.20;;;;;;;27.90;47.33;100395.75;4961277;28;101659;-89
2022/06/24 10:58:03;;;;;;;2.43;1.93;;;;;;;27.86;47.12;100378.56;4946742;28;96769;-88
2022/06/24 11:00:39;;;;;;;5.00;2.27;;;;;;;28.02;47.95;100381.59;4946393;28;104505;-86
2022/06/24 11:03:04;;;;;;;2.57;2.37;;;;;;;28.16;46.76;100383.09;4947245;28;99267;-88
2022/06/24 11:05:30;;;;;;;5.23;2.40;;;;;;;28.18;47.25;100410.78;4957041;28;96653;-90
2022/06/24 11:07:56;;;;;;;2.07;1.97;;;;;;;28.25;47.45;100387.13;4954646;28;96840;-93
2022/06/24 11:10:26;;;;;;;2.63;2.43;;;;;;;28.26;47.75;100402.75;4951348;28;97167;-87
2022/06/24 11:12:58;;;;;;;2.07;1.87;;;;;;;28.29;47.82;100381.69;4947261;28;97666;-88
2022/06/24 11:15:48;;;;;;;2.47;2.33;;;;;;;28.33;49.45;100381.19;4946386;28;97211;-88
2022/06/24 11:18:35;;;;;;;2.67;2.27;;;;;;;28.34;49.61;100385.47;4948703;28;97054;-89
2022/06/24 11:21:01;;;;;;;2.37;1.70;;;;;;;28.35;46.66;100381.28;4942407;28;97404;-87
2022/06/24 11:23:32;;;;;;;1.47;1.37;;;;;;;28.36;46.82;100377.09;4949802;28;97119;-89
2022/06/24 11:26:09;;;;;;;2.10;1.80;;;;;;;28.34;46.74;100371.31;4944952;28;96876;-88
2022/06/24 11:28:36;;;;;;;1.43;1.33;;;;;;;28.27;46.75;100378.00;4941368;28;97050;-88
2022/06/24 11:31:19;;;;;;;4.13;1.50;;;;;;;28.36;46.87;100366.50;4947286;28;100183;-89
2022/06/24 11:33:47;;;;;;;2.03;1.53;;;;;;;28.40;45.11;100366.72;4943561;28;101957;-87
2022/06/24 11:36:14;;;;;;;1.30;1.20;;;;;;;28.44;45.73;100371.88;4929338;28;97061;-87
2022/06/24 11:38:55;;;;;;;2.10;1.27;;;;;;;28.47;46.13;100381.94;4942596;28;96900;-89
2022/06/24 11:41:22;;;;;;;0.97;0.90;;;;;;;28.49;46.28;100379.94;4948708;28;101929;-87